Time;durP1;ratioP1;P1;durP2;ratioP2;P2;SDS_P1;SDS_P2;PMS_P1;PMS_P2;Temp;Humidity;BMP_temperature;BMP_pressure;BME280_temperature;BME280_humidity;BME280_pressure;Samples;Min_cycle;Max_cycle;Signal;HPM_P1;HPM_P2
2022/08/19 00:05:02;;;;;;;16.70;13.18;;;;;;;19.88;91.43;98544.14;4244953;82;20971;-84
2022/08/19 00:11:04;;;;;;;18.25;14.55;;;;;;;19.84;91.73;98548.27;4236466;82;21102;-84
2022/08/19 00:17:08;;;;;;;16.30;14.63;;;;;;;19.79;92.05;98547.44;4241480;82;21884;-84
2022/08/19 00:23:10;;;;;;;16.75;14.65;;;;;;;19.76;92.34;98548.33;4235721;82;21034;-84
2022/08/19 00:29:17;;;;;;;19.17;14.83;;;;;;;19.75;92.67;98549.53;4251405;82;21063;-85
2022/08/19 00:35:18;;;;;;;18.23;15.30;;;;;;;19.70;92.96;98542.55;4256542;82;21028;-83
2022/08/19 00:41:22;;;;;;;16.00;11.73;;;;;;;19.68;93.45;98551.17;4255534;82;21027;-84
2022/08/19 00:47:24;;;;;;;19.55;14.50;;;;;;;19.68;94.06;98551.95;4261967;82;20990;-84
2022/08/19 00:53:29;;;;;;;19.40;14.98;;;;;;;19.65;93.97;98545.91;4260002;82;20988;-84
2022/08/19 00:59:33;;;;;;;15.83;13.30;;;;;;;19.52;94.01;98541.56;4257284;82;21071;-84
2022/08/19 01:05:36;;;;;;;19.32;17.25;;;;;;;19.41;94.48;98527.25;4255865;82;21055;-84
2022/08/19 01:11:43;;;;;;;18.70;15.60;;;;;;;19.27;94.77;98526.28;4249380;82;22270;-84
2022/08/19 01:17:45;;;;;;;17.67;15.85;;;;;;;19.18;95.40;98527.55;4261462;82;21110;-85
2022/08/19 01:23:47;;;;;;;18.15;16.25;;;;;;;19.23;96.00;98524.23;4254781;82;21112;-83
2022/08/19 01:29:49;;;;;;;20.23;16.95;;;;;;;19.27;95.93;98517.95;4254296;82;22055;-83
2022/08/19 01:35:51;;;;;;;22.37;17.57;;;;;;;19.19;96.03;98504.12;4255120;82;21555;-83
2022/08/19 01:41:54;;;;;;;21.73;17.48;;;;;;;19.10;96.34;98499.26;4257907;82;21051;-83
2022/08/19 01:47:57;;;;;;;19.17;17.15;;;;;;;19.04;96.59;98507.97;4263145;82;21030;-83
2022/08/19 01:53:58;;;;;;;22.40;17.17;;;;;;;18.97;96.77;98510.95;4261651;82;21565;-84
2022/08/19 02:00:02;;;;;;;22.75;17.75;;;;;;;18.92;97.06;98506.57;4255811;82;21550;-84
2022/08/19 02:06:06;;;;;;;21.57;18.73;;;;;;;18.84;96.96;98507.99;4254082;82;21015;-83
2022/08/19 02:12:08;;;;;;;24.50;17.90;;;;;;;18.73;97.65;98506.30;4260567;82;21058;-82
2022/08/19 02:18:10;;;;;;;20.17;17.02;;;;;;;18.73;98.17;98496.59;4256251;82;20971;-85
2022/08/19 02:24:13;;;;;;;21.68;19.32;;;;;;;18.70;98.13;98493.32;4260461;82;21045;-82
2022/08/19 02:30:17;;;;;;;18.48;15.85;;;;;;;18.59;98.24;98488.70;4247365;82;21012;-82
2022/08/19 02:36:18;;;;;;;18.87;16.10;;;;;;;18.54;99.03;98482.30;4245452;82;21019;-87
2022/08/19 02:42:21;;;;;;;22.15;17.70;;;;;;;18.64;99.48;98484.00;4237031;82;21062;-85
2022/08/19 02:48:25;;;;;;;22.27;18.60;;;;;;;18.60;99.36;98486.70;4242844;82;21031;-85
2022/08/19 02:54:27;;;;;;;22.20;18.80;;;;;;;18.57;99.38;98492.50;4234847;82;21008;-83
2022/08/19 03:00:29;;;;;;;24.23;19.00;;;;;;;18.52;99.75;98495.05;4240716;82;21067;-84
2022/08/19 03:06:32;;;;;;;20.30;15.60;;;;;;;18.42;99.76;98499.68;4239854;82;21582;-83
2022/08/19 03:12:37;;;;;;;24.37;17.42;;;;;;;18.43;100.00;98503.99;4217388;82;21006;-84
2022/08/19 03:18:38;;;;;;;20.17;17.42;;;;;;;18.47;100.00;98506.67;4231932;82;21087;-83
2022/08/19 03:24:40;;;;;;;18.40;14.90;;;;;;;18.44;100.00;98497.86;4246113;82;21484;-83
2022/08/19 03:30:45;;;;;;;22.62;17.57;;;;;;;18.33;100.00;98493.19;4238561;82;21902;-83
2022/08/19 03:36:50;;;;;;;23.47;18.23;;;;;;;18.28;100.00;98503.41;4237194;82;21023;-82
2022/08/19 03:42:52;;;;;;;22.22;19.02;;;;;;;18.22;100.00;98506.55;4239931;82;21584;-82
2022/08/19 03:48:56;;;;;;;21.27;16.55;;;;;;;18.15;100.00;98513.69;4236289;82;21584;-83
2022/08/19 03:54:57;;;;;;;19.70;16.80;;;;;;;18.13;100.00;98507.20;4241364;82;21031;-82
2022/08/19 04:00:58;;;;;;;22.82;18.75;;;;;;;18.12;100.00;98511.78;4240098;82;21028;-82
2022/08/19 04:06:59;;;;;;;26.93;17.67;;;;;;;18.13;100.00;98500.27;4236997;82;21008;-83
2022/08/19 04:13:05;;;;;;;22.15;17.50;;;;;;;18.08;100.00;98493.88;4241430;82;21051;-82
2022/08/19 04:19:08;;;;;;;;;;;;;;;18.08;100.00;98502.18;4245598;82;21019;-83
2022/08/19 04:25:10;;;;;;;19.10;15.45;;;;;;;18.11;100.00;98497.16;4235016;82;20113;-83
2022/08/19 04:31:25;;;;;;;21.27;16.07;;;;;;;18.16;100.00;98511.08;4237628;82;21643;-85
2022/08/19 04:37:22;;;;;;;17.98;15.43;;;;;;;18.24;100.00;98505.52;4259601;82;21611;-82
2022/08/19 04:50:14;;;;;;;20.07;17.27;;;;;;;18.45;100.00;98527.90;4250955;82;21511;-81
2022/08/19 04:56:22;;;;;;;18.52;16.55;;;;;;;18.54;100.00;98543.28;4265245;82;21563;-86
2022/08/19 05:02:25;;;;;;;19.45;17.20;;;;;;;18.69;100.00;98556.14;4227374;82;21138;-83
2022/08/19 05:08:26;;;;;;;24.82;20.43;;;;;;;18.82;100.00;98555.58;4257819;82;21530;-82
2022/08/19 05:14:28;;;;;;;23.38;20.92;;;;;;;18.95;100.00;98562.54;4254454;82;21471;-83
2022/08/19 05:26:56;;;;;;;23.40;20.60;;;;;;;19.31;100.00;98558.27;4257011;82;21688;-83
2022/08/19 05:32:58;;;;;;;25.48;19.82;;;;;;;19.52;100.00;98555.45;4241983;82;21015;-83
2022/08/19 05:39:00;;;;;;;23.32;20.60;;;;;;;19.68;100.00;98550.56;4245630;82;21459;-83
2022/08/19 05:45:02;;;;;;;23.83;19.50;;;;;;;19.86;100.00;98552.14;4247068;82;21039;-86
2022/08/19 05:51:06;;;;;;;22.27;18.57;;;;;;;20.05;100.00;98560.83;4217863;82;21080;-84
2022/08/19 05:57:08;;;;;;;24.40;17.27;;;;;;;20.27;100.00;98558.73;4250090;82;20993;-84
2022/08/19 06:03:10;;;;;;;20.00;17.50;;;;;;;20.51;100.00;98543.98;4239801;82;21579;-84
2022/08/19 06:09:12;;;;;;;21.35;17.92;;;;;;;20.77;100.00;98552.34;4211995;82;21030;-84
2022/08/19 06:15:15;;;;;;;18.23;16.32;;;;;;;21.07;100.00;98559.20;4235952;82;21453;-86
2022/08/19 06:21:17;;;;;;;21.37;14.95;;;;;;;21.38;100.00;98555.81;4237358;82;21626;-85
2022/08/19 06:27:22;;;;;;;18.67;15.43;;;;;;;21.66;100.00;98571.39;4245489;82;20999;-84
2022/08/19 06:33:24;;;;;;;17.25;14.43;;;;;;;21.95;100.00;98568.27;4247631;82;21070;-84
2022/08/19 06:39:30;;;;;;;17.57;14.55;;;;;;;22.26;100.00;98575.30;4240465;82;20987;-84
2022/08/19 06:45:31;;;;;;;15.75;13.15;;;;;;;22.53;100.00;98569.78;4244059;82;20972;-84
2022/08/19 06:51:34;;;;;;;15.50;13.32;;;;;;;22.80;100.00;98582.95;4244794;82;21019;-85
2022/08/19 06:57:35;;;;;;;14.95;12.58;;;;;;;23.06;100.00;98588.33;4247803;82;20972;-85
2022/08/19 07:03:39;;;;;;;15.03;13.05;;;;;;;23.31;100.00;98596.38;4233988;82;21019;-85
2022/08/19 07:09:44;;;;;;;17.67;13.28;;;;;;;23.54;100.00;98599.86;4245860;82;21000;-86
2022/08/19 07:15:46;;;;;;;16.37;12.18;;;;;;;23.79;99.10;98603.64;4244950;82;21043;-83
2022/08/19 07:21:52;;;;;;;13.00;11.60;;;;;;;24.04;98.72;98599.04;4244024;82;21047;-84
2022/08/19 07:27:53;;;;;;;13.43;12.07;;;;;;;24.32;98.08;98591.27;4244959;82;21096;-84
2022/08/19 07:33:56;;;;;;;13.83;11.97;;;;;;;24.58;97.13;98605.69;4239978;82;21555;-83
2022/08/19 07:39:57;;;;;;;13.98;10.78;;;;;;;24.88;96.91;98600.96;4247626;82;21499;-86
2022/08/19 07:45:59;;;;;;;17.07;11.93;;;;;;;25.22;96.45;98603.73;4244448;82;20975;-84
2022/08/19 07:52:06;;;;;;;13.98;11.35;;;;;;;25.54;95.80;98599.35;4241756;82;21074;-85
2022/08/19 07:58:08;;;;;;;15.85;11.53;;;;;;;25.94;94.73;98605.10;4241138;82;21055;-86
2022/08/19 08:10:30;;;;;;;14.78;10.40;;;;;;;26.85;92.51;98622.04;4243101;82;21055;-86
2022/08/19 08:16:38;;;;;;;14.28;10.45;;;;;;;27.26;91.04;98622.92;4244904;82;21006;-86
2022/08/19 08:29:09;;;;;;;13.35;9.98;;;;;;;27.63;87.91;98636.28;4216936;81;20995;-85
2022/08/19 08:35:14;;;;;;;13.10;9.85;;;;;;;27.88;87.87;98636.91;4238019;82;22138;-85
2022/08/19 08:41:55;;;;;;;14.37;9.50;;;;;;;28.08;86.38;98629.75;4244995;82;20991;-87
2022/08/19 08:48:02;;;;;;;13.62;9.20;;;;;;;28.37;85.55;98618.93;4239758;82;21007;-87
2022/08/19 08:54:07;;;;;;;13.10;9.30;;;;;;;28.72;84.48;98627.81;4234043;82;21058;-85
2022/08/19 09:00:18;;;;;;;9.83;8.83;;;;;;;29.07;83.85;98623.22;4240658;82;20997;-88
2022/08/19 09:06:30;;;;;;;9.48;8.18;;;;;;;29.41;82.17;98614.98;4232962;82;21011;-86
2022/08/19 09:12:51;;;;;;;11.80;8.60;;;;;;;29.66;80.75;98612.55;4239911;82;21026;-86
2022/08/19 09:18:57;;;;;;;10.53;8.43;;;;;;;30.01;79.34;98619.85;4240394;82;21020;-86
2022/08/19 09:25:00;;;;;;;11.75;8.08;;;;;;;30.35;77.56;98619.19;4234875;82;20976;-86
2022/08/19 09:31:01;;;;;;;12.55;8.58;;;;;;;30.84;76.78;98608.34;4249148;82;21067;-85
2022/08/19 09:37:03;;;;;;;11.48;8.08;;;;;;;31.40;75.22;98605.33;4254580;82;21019;-86
2022/08/19 09:43:13;;;;;;;10.58;7.65;;;;;;;31.91;73.67;98599.42;4260913;82;21023;-87
2022/08/19 09:49:17;;;;;;;12.23;7.60;;;;;;;32.40;68.57;98596.76;4255570;82;21578;-87
2022/08/19 09:55:19;;;;;;;10.20;7.53;;;;;;;32.94;69.37;98581.00;4259532;82;21552;-86
2022/08/19 10:01:26;;;;;;;10.85;7.70;;;;;;;33.53;67.19;98582.73;4255211;82;21486;-88
2022/08/19 10:07:29;;;;;;;10.88;7.78;;;;;;;34.07;66.20;98577.41;4256622;82;21401;-87
2022/08/19 10:13:35;;;;;;;9.78;6.50;;;;;;;34.65;64.92;98562.46;4258446;82;21020;-87
2022/08/19 10:19:36;;;;;;;11.00;7.25;;;;;;;34.78;61.80;98565.29;4212722;83;22350;-86
2022/08/19 10:25:37;;;;;;;10.50;7.37;;;;;;;35.17;60.98;98563.78;4233905;83;22026;-87
2022/08/19 10:31:40;;;;;;;10.10;7.30;;;;;;;35.06;59.28;98569.73;4191996;83;22004;-85
2022/08/19 10:37:42;;;;;;;10.00;7.72;;;;;;;34.98;57.61;98563.19;4275195;81;21510;-87
2022/08/19 10:43:44;;;;;;;8.90;7.30;;;;;;;34.80;56.62;98565.48;4219368;83;21028;-86
2022/08/19 11:02:34;;;;;;;10.38;7.08;;;;;;;34.71;54.55;98561.69;4198651;83;21038;-87
2022/08/19 11:08:37;;;;;;;10.88;7.75;;;;;;;34.98;53.45;98555.30;4230421;83;21038;-87
2022/08/19 11:14:39;;;;;;;8.40;7.50;;;;;;;35.35;53.68;98555.70;4188765;83;20987;-88
2022/08/19 11:20:40;;;;;;;8.53;7.08;;;;;;;35.79;53.47;98536.77;4211205;83;21590;-86
2022/08/19 11:26:49;;;;;;;9.53;7.53;;;;;;;35.94;52.08;98538.35;4263724;81;21947;-86
2022/08/19 11:32:51;;;;;;;10.38;7.03;;;;;;;36.05;51.88;98528.08;4220338;83;21114;-88
2022/08/19 11:38:54;;;;;;;11.57;8.08;;;;;;;36.17;52.12;98522.94;4227290;83;21843;-89
2022/08/19 11:44:55;;;;;;;9.85;7.92;;;;;;;36.04;51.08;98518.77;4224601;83;21016;-88
2022/08/19 11:50:57;;;;;;;9.50;8.18;;;;;;;35.83;50.53;98518.06;4231691;83;20947;-89
2022/08/19 11:56:58;;;;;;;11.78;6.90;;;;;;;35.39;48.58;98524.09;4228808;83;20983;-87
2022/08/19 12:03:00;;;;;;;9.15;6.72;;;;;;;35.17;48.61;98526.03;4231546;83;21008;-86
2022/08/19 12:09:08;;;;;;;7.28;6.58;;;;;;;34.80;48.70;98524.26;4228162;83;21110;-86
2022/08/19 12:15:11;;;;;;;8.70;7.80;;;;;;;34.53;48.96;98525.66;4233201;83;21043;-88
2022/08/19 12:21:16;;;;;;;10.93;6.92;;;;;;;34.40;48.51;98521.40;4259445;82;21456;-87
2022/08/19 12:27:18;;;;;;;10.60;7.95;;;;;;;34.16;48.71;98522.37;4229303;83;21506;-87
2022/08/19 12:33:24;;;;;;;7.70;6.95;;;;;;;33.99;48.62;98523.34;4220752;83;21519;-87
2022/08/19 12:39:24;;;;;;;7.40;6.33;;;;;;;33.81;48.52;98519.94;4200759;83;20995;-86
2022/08/19 12:45:25;;;;;;;7.12;6.42;;;;;;;33.62;47.52;98511.38;4228315;83;21075;-87
2022/08/19 12:51:27;;;;;;;8.48;6.80;;;;;;;33.46;47.66;98510.36;4229314;83;21023;-87
2022/08/19 12:57:29;;;;;;;7.97;6.55;;;;;;;33.20;48.09;98508.84;4265000;82;21543;-88
2022/08/19 13:03:30;;;;;;;8.93;6.53;;;;;;;33.07;48.21;98517.29;4258496;82;20999;-86
2022/08/19 13:09:35;;;;;;;7.20;5.40;;;;;;;33.05;47.99;98513.58;4261919;82;21034;-88
2022/08/19 13:15:40;;;;;;;9.28;5.87;;;;;;;32.91;47.56;98504.90;4253547;82;21559;-87
2022/08/19 13:21:41;;;;;;;11.45;6.78;;;;;;;32.81;47.37;98502.97;4254252;82;21906;-87
2022/08/19 13:27:43;;;;;;;8.30;6.10;;;;;;;32.80;47.73;98492.92;4222658;83;21484;-86
2022/08/19 13:33:45;;;;;;;8.45;5.35;;;;;;;32.68;47.27;98492.98;4225108;83;21018;-87
2022/08/19 13:39:47;;;;;;;7.90;5.10;;;;;;;32.62;46.72;98491.65;4202705;83;21545;-87
2022/08/19 13:45:55;;;;;;;9.73;4.90;;;;;;;32.55;44.78;98489.41;4231189;83;21051;-87
2022/08/19 13:51:57;;;;;;;5.58;4.53;;;;;;;32.46;45.52;98477.70;4277362;81;20974;-88
2022/08/19 13:58:02;;;;;;;7.65;5.03;;;;;;;32.35;44.91;98474.34;4233157;82;21042;-87
2022/08/19 14:04:05;;;;;;;7.83;5.60;;;;;;;32.36;44.24;98472.25;4195758;83;21050;-87
2022/08/19 14:10:11;;;;;;;9.80;5.67;;;;;;;32.33;44.86;98474.10;4231318;83;21958;-88
2022/08/19 14:16:14;;;;;;;8.90;5.90;;;;;;;32.22;45.58;98467.16;4229208;83;21028;-87
2022/08/19 14:22:15;;;;;;;6.60;5.60;;;;;;;32.11;45.44;98458.81;4213625;83;21046;-87
2022/08/19 14:28:16;;;;;;;7.15;5.40;;;;;;;31.99;46.00;98457.42;4245623;82;21050;-88
2022/08/19 14:34:18;;;;;;;8.15;5.40;;;;;;;31.96;46.24;98442.25;4229598;82;21716;-87
2022/08/19 14:40:25;;;;;;;9.08;6.40;;;;;;;31.92;46.93;98455.17;4223327;82;21018;-87
2022/08/19 14:46:27;;;;;;;8.80;6.80;;;;;;;31.86;47.17;98466.58;4225678;82;21025;-86
2022/08/19 14:52:28;;;;;;;9.03;6.28;;;;;;;31.86;47.32;98460.91;4227988;82;21464;-87
2022/08/19 14:58:31;;;;;;;9.23;6.35;;;;;;;31.83;47.56;98452.69;4223768;82;21006;-88
2022/08/19 15:04:35;;;;;;;8.23;5.85;;;;;;;31.82;47.78;98451.16;4226258;82;21830;-87
2022/08/19 15:10:39;;;;;;;8.10;6.00;;;;;;;31.75;47.55;98451.73;4233174;82;21070;-87
2022/08/19 15:16:41;;;;;;;7.83;6.87;;;;;;;31.64;48.60;98426.39;4227242;83;21006;-88
2022/08/19 15:22:44;;;;;;;7.30;6.60;;;;;;;31.51;48.98;98418.56;4204055;83;21006;-86
2022/08/19 15:28:46;;;;;;;7.70;6.00;;;;;;;31.42;49.36;98416.73;4215948;83;21010;-86
2022/08/19 15:34:48;;;;;;;14.60;10.20;;;;;;;31.33;49.77;98417.09;4212471;83;21090;-87
2022/08/19 15:40:50;;;;;;;13.65;9.80;;;;;;;31.28;50.09;98424.30;4206620;83;21002;-87
2022/08/19 15:46:51;;;;;;;12.58;7.78;;;;;;;31.20;50.45;98416.91;4217732;83;20968;-86
2022/08/19 15:52:57;;;;;;;7.80;6.47;;;;;;;31.13;50.85;98410.44;4215800;83;21964;-86
2022/08/19 16:11:46;;;;;;;8.53;6.10;;;;;;;30.78;51.54;98407.00;4213881;83;21090;-86
2022/08/19 16:17:47;;;;;;;10.90;6.92;;;;;;;30.63;51.80;98412.88;4220480;83;21030;-87
2022/08/19 16:23:50;;;;;;;8.00;6.85;;;;;;;30.50;52.03;98407.83;4155911;84;21046;-87
2022/08/19 16:29:52;;;;;;;8.93;7.20;;;;;;;30.34;52.42;98398.17;4146459;84;22152;-85
2022/08/19 16:35:53;;;;;;;8.05;7.25;;;;;;;30.18;52.92;98420.83;4220322;83;21003;-86
2022/08/19 16:41:55;;;;;;;8.58;7.60;;;;;;;29.99;53.38;98430.52;4216651;83;20975;-87
2022/08/19 16:47:57;;;;;;;11.25;6.95;;;;;;;29.76;53.94;98426.88;4092102;81;9999637;-86
2022/08/19 16:53:59;;;;;;;11.33;7.80;;;;;;;29.52;54.61;98424.61;4227406;83;20963;-87
2022/08/19 17:00:07;;;;;;;10.20;7.55;;;;;;;29.37;55.01;98436.05;4255624;82;21035;-86
2022/08/19 17:06:17;;;;;;;9.68;7.90;;;;;;;29.26;55.42;98450.94;4257707;82;21063;-87
2022/08/19 17:12:19;;;;;;;12.07;7.72;;;;;;;29.10;55.72;98437.61;4249053;82;21051;-87
2022/08/19 17:18:21;;;;;;;10.72;8.50;;;;;;;28.91;56.17;98422.50;4253408;82;21040;-87
2022/08/19 17:24:24;;;;;;;11.10;8.78;;;;;;;28.76;56.61;98427.59;4248229;82;21950;-88
2022/08/19 17:30:25;;;;;;;12.47;9.00;;;;;;;28.65;56.98;98428.99;4228984;83;20983;-86
2022/08/19 17:36:32;;;;;;;11.08;8.48;;;;;;;28.53;57.35;98433.08;4250032;81;20998;-87
2022/08/19 17:42:35;;;;;;;12.90;8.70;;;;;;;28.42;57.58;98434.44;4259751;82;21031;-87
2022/08/19 17:48:39;;;;;;;10.70;8.88;;;;;;;28.31;57.81;98443.63;4249122;82;20999;-85
2022/08/19 17:54:41;;;;;;;14.10;8.83;;;;;;;28.27;58.07;98455.75;4244488;82;20982;-87
2022/08/19 18:00:42;;;;;;;10.60;9.45;;;;;;;28.22;58.09;98459.97;4219674;82;21003;-86
2022/08/19 18:06:46;;;;;;;14.55;9.53;;;;;;;28.20;58.19;98465.33;4248363;82;21051;-87
2022/08/19 18:12:49;;;;;;;14.38;9.83;;;;;;;28.14;58.34;98469.54;4257905;82;21006;-86
2022/08/19 18:18:53;;;;;;;11.65;9.48;;;;;;;28.11;58.45;98464.14;4252422;82;21003;-86
2022/08/19 18:24:57;;;;;;;11.73;8.85;;;;;;;28.05;58.54;98478.83;4280383;81;20983;-86
2022/08/19 18:31:02;;;;;;;13.38;8.53;;;;;;;28.02;58.73;98495.31;4223831;83;20979;-85
2022/08/19 18:37:04;;;;;;;10.63;8.38;;;;;;;27.94;58.73;98499.22;4192963;83;20995;-86
2022/08/19 18:49:21;;;;;;;22.60;7.97;;;;;;;27.35;60.65;98603.07;4196421;83;21011;-85
2022/08/19 18:55:22;;;;;;;13.03;7.35;;;;;;;26.99;61.98;98600.89;4229697;83;21011;-87
2022/08/19 19:01:29;;;;;;;20.08;7.53;;;;;;;26.35;63.06;98662.08;4227383;83;21088;-87
2022/08/19 19:07:30;;;;;;;14.35;7.28;;;;;;;26.01;64.12;98677.63;4255668;82;20987;-86
2022/08/19 19:13:34;;;;;;;15.80;8.28;;;;;;;25.69;65.27;98682.82;4251765;82;20975;-86
2022/08/19 19:19:41;;;;;;;18.50;7.78;;;;;;;25.18;67.83;98706.80;4257339;82;21012;-87
2022/08/19 19:25:40;;;;;;;12.10;7.03;;;;;;;25.18;67.83;98706.80;4253078;82;21031;-86
2022/08/19 19:31:44;;;;;;;14.53;8.10;;;;;;;24.91;69.53;98702.19;4224610;83;21009;-85
2022/08/19 19:37:51;;;;;;;10.93;6.95;;;;;;;24.91;69.53;98702.19;4229443;83;21951;-85
2022/08/19 19:43:52;;;;;;;13.75;7.15;;;;;;;24.86;70.46;98699.27;4218874;83;21861;-86
2022/08/19 19:49:54;;;;;;;11.12;7.00;;;;;;;24.81;71.45;98704.89;4222130;83;21052;-85
2022/08/19 19:55:57;;;;;;;13.40;7.17;;;;;;;24.73;72.11;98698.75;4226073;83;21019;-85
2022/08/19 20:02:00;;;;;;;17.57;8.20;;;;;;;24.72;72.87;98694.39;4238756;83;21046;-85
2022/08/19 20:14:27;;;;;;;14.73;8.50;;;;;;;24.28;74.22;98689.95;4261744;82;21073;-86
2022/08/19 20:20:30;;;;;;;15.30;9.05;;;;;;;24.13;74.68;98700.30;4256475;82;21055;-86
2022/08/19 20:26:31;;;;;;;15.23;8.38;;;;;;;23.93;75.95;98717.56;4254385;82;21060;-86
2022/08/19 20:32:33;;;;;;;15.15;8.20;;;;;;;23.88;76.59;98727.98;4248309;82;21099;-86
2022/08/19 20:38:34;;;;;;;14.00;8.23;;;;;;;23.74;77.25;98732.83;4248782;82;20962;-87
2022/08/19 20:44:36;;;;;;;13.83;8.43;;;;;;;23.58;78.07;98724.03;4237935;82;22213;-84
2022/08/19 20:50:38;;;;;;;12.88;8.30;;;;;;;23.44;78.80;98717.08;4245433;82;21043;-86
2022/08/19 20:56:40;;;;;;;17.70;8.75;;;;;;;23.37;79.49;98711.01;4242473;82;21035;-85
2022/08/19 21:02:41;;;;;;;13.75;8.85;;;;;;;23.37;80.50;98703.41;4241235;82;21469;-85
2022/08/19 21:08:42;;;;;;;14.38;8.48;;;;;;;23.30;80.34;98682.80;4242786;82;21358;-86
2022/08/19 21:14:45;;;;;;;16.65;8.73;;;;;;;23.21;80.87;98690.52;4245881;82;21897;-85
2022/08/19 21:20:49;;;;;;;14.47;8.63;;;;;;;23.18;81.32;98688.66;4244673;82;21024;-85
2022/08/19 21:26:50;;;;;;;13.05;8.70;;;;;;;23.17;81.75;98691.31;4237708;82;21037;-85
2022/08/19 21:32:53;;;;;;;16.77;8.50;;;;;;;23.13;81.98;98691.31;4241603;82;21110;-85
2022/08/19 21:38:55;;;;;;;17.62;9.53;;;;;;;22.99;82.28;98690.55;4242575;82;21033;-85
2022/08/19 21:44:56;;;;;;;18.87;9.93;;;;;;;22.89;83.03;98693.17;4245091;82;21004;-85
2022/08/19 21:50:58;;;;;;;12.47;8.28;;;;;;;22.85;83.66;98694.70;4236903;82;21056;-85
2022/08/19 21:56:59;;;;;;;14.35;8.43;;;;;;;22.81;84.21;98684.94;4240143;82;21498;-86
2022/08/19 22:03:03;;;;;;;16.67;9.38;;;;;;;22.86;84.80;98696.28;4241551;82;21027;-84
2022/08/19 22:09:04;;;;;;;13.60;8.83;;;;;;;22.81;84.75;98695.50;4242165;82;21074;-85
2022/08/19 22:15:08;;;;;;;13.48;8.25;;;;;;;22.74;85.66;98702.00;4244277;82;20986;-84
2022/08/19 22:21:09;;;;;;;19.55;8.28;;;;;;;22.73;85.96;98699.03;4248133;82;21906;-85
2022/08/19 22:27:12;;;;;;;18.77;9.75;;;;;;;22.68;86.39;98696.85;4244493;82;20996;-84
2022/08/19 22:33:16;;;;;;;13.93;9.48;;;;;;;22.66;86.30;98689.59;4250185;82;21059;-85
2022/08/19 22:39:18;;;;;;;17.75;9.85;;;;;;;22.53;86.64;98683.36;4271915;82;21040;-84
2022/08/19 22:45:21;;;;;;;18.70;9.93;;;;;;;22.46;87.05;98686.39;4270537;82;21076;-86
2022/08/19 22:57:43;;;;;;;14.80;10.23;;;;;;;22.35;87.58;98687.48;4272268;82;21031;-85
2022/08/19 23:03:44;;;;;;;15.95;9.13;;;;;;;22.25;88.00;98683.10;4277769;82;21436;-85
2022/08/19 23:09:46;;;;;;;22.00;11.30;;;;;;;22.19;88.77;98680.13;4276936;82;21019;-85
2022/08/19 23:15:47;;;;;;;18.23;10.60;;;;;;;22.18;88.85;98684.16;4273588;82;21071;-85
2022/08/19 23:21:49;;;;;;;15.43;10.32;;;;;;;22.08;88.78;98682.56;4266492;82;20979;-85
2022/08/19 23:34:11;;;;;;;15.58;9.68;;;;;;;21.79;89.97;98698.08;4272993;82;21083;-85
2022/08/19 23:40:15;;;;;;;16.07;10.65;;;;;;;21.82;90.55;98696.55;4256811;82;21027;-85
2022/08/19 23:46:18;;;;;;;22.10;10.98;;;;;;;21.67;90.21;98662.86;4253423;82;21686;-85
2022/08/19 23:52:19;;;;;;;13.32;10.38;;;;;;;21.49;90.99;98682.27;4262293;82;21042;-85
2022/08/19 23:58:22;;;;;;;17.65;11.60;;;;;;;21.43;91.53;98679.91;4256556;82;21007;-85
